• Join FlightAware (Why Join?)
  • Login
  • US Flag 
06:02AM EDT


 

Airport Tracker/Info


-or-


 

Live Flight TrackerFlight Track Log ✈ AWE1092 ✈ 15-May-2013 ✈ KOOD - KRDU

Flight Track Log - Related Links

Times and Time Zones

All times are in EDT time to prevent confusion due to time zone crossing. See the AWE1092 flight status page for this flight to view local times or setup timezone preferences in your user account.

Time Position Orientation Groundspeed Altitude Reporting Facility
EDT Latitude Longitude Course Direction KTS MPH feet Rate Location/Type
10:17AM -18.8726 -161.8607 122° Southeast  Level Estimated
10:18AM -18.8043 -161.7618 54° Northeast  Level Estimated
10:19AM -18.7360 -161.6629 54° Northeast  Level Estimated
10:20AM -18.6676 -161.5642 54° Northeast  Level Estimated
10:21AM -18.5992 -161.4655 54° Northeast  Level Estimated
10:22AM -18.5307 -161.3669 54° Northeast  Level Estimated
10:23AM -18.4622 -161.2684 54° Northeast  Level Estimated
10:24AM -18.3937 -161.1700 54° Northeast  Level Estimated
10:25AM -18.3251 -161.0718 54° Northeast  Level Estimated
10:26AM -18.2565 -160.9736 54° Northeast  Level Estimated
10:27AM -18.1879 -160.8755 54° Northeast  Level Estimated
10:28AM -18.1192 -160.7775 54° Northeast  Level Estimated
10:29AM -18.0504 -160.6795 54° Northeast  Level Estimated
10:30AM -17.9816 -160.5816 54° Northeast  Level Estimated
10:31AM -17.9128 -160.4838 54° Northeast  Level Estimated
10:32AM -17.8439 -160.3861 53° Northeast  Level Estimated
10:33AM -17.7750 -160.2885 53° Northeast  Level Estimated
10:34AM -17.7060 -160.1909 53° Northeast  Level Estimated
10:35AM -17.6369 -160.0934 53° Northeast  Level Estimated
10:36AM -17.5678 -159.9960 53° Northeast  Level Estimated
10:37AM -17.4987 -159.8986 53° Northeast  Level Estimated
10:38AM -17.4295 -159.8013 53° Northeast  Level Estimated
10:39AM -17.3603 -159.7041 53° Northeast  Level Estimated
10:40AM -17.2910 -159.6070 53° Northeast  Level Estimated
10:41AM -17.2217 -159.5100 53° Northeast  Level Estimated
10:42AM -17.1523 -159.4130 53° Northeast  Level Estimated
10:43AM -17.0829 -159.3161 53° Northeast  Level Estimated
10:44AM -17.0134 -159.2192 53° Northeast  Level Estimated
10:45AM -16.9439 -159.1225 53° Northeast  Level Estimated
10:46AM -16.8743 -159.0258 53° Northeast  Level Estimated
10:47AM -16.8047 -158.9292 53° Northeast  Level Estimated
10:48AM -16.7351 -158.8326 53° Northeast  Level Estimated
10:49AM -16.6654 -158.7361 53° Northeast  Level Estimated
10:50AM -16.5956 -158.6397 53° Northeast  Level Estimated
10:51AM -16.5259 -158.5434 53° Northeast  Level Estimated
10:52AM -16.4561 -158.4471 53° Northeast  Level Estimated
10:53AM -16.3862 -158.3509 53° Northeast  Level Estimated
10:54AM -16.3163 -158.2548 53° Northeast  Level Estimated
10:55AM -16.2463 -158.1587 53° Northeast  Level Estimated